Terminal Aerodrome Forecast
Issued by NWS Denver/Boulder, CO

Home | Current Version | Previous Version | Text Only | Print | Product List | Glossary On
Versions: 1 2 3 4 5 6 7 8 9 10 11 12 13 14 15 16 17 18 19 20 21 22 23 24 25 26 27 28 29 30 31 32 33
000
FTUS45 KBOU 180538
TAFDEN
TAF
KDEN 180538Z 1806/1912 28011KT P6SM SCT020 SCT040 OVC080
     FM180800 34018G26KT P6SM BKN030 OVC060
     FM181200 32011G18KT P6SM SCT030 BKN080
     FM181500 20010KT P6SM FEW080
     FM182000 03008KT P6SM FEW080
     FM190000 15006KT P6SM SKC
     FM190600 22008KT P6SM SCT220=

USA.gov is the U.S. government's official web portal to all federal, state and local government web resources and services.